createdAt,value
2022-11-17T00:02:30.043Z,11.59
2022-11-17T00:07:27.129Z,12.13
2022-11-17T00:12:42.127Z,12.20
2022-11-17T00:17:41.093Z,11.60
2022-11-17T00:22:38.145Z,12.25
2022-11-17T00:27:35.096Z,12.27
2022-11-17T00:32:50.105Z,11.62
2022-11-17T00:38:02.120Z,11.64
2022-11-17T00:42:59.239Z,12.15
2022-11-17T00:47:56.048Z,12.18
2022-11-17T00:52:53.990Z,12.08
2022-11-17T00:57:50.971Z,12.17
2022-11-17T01:02:48.035Z,12.50
2022-11-17T01:07:46.334Z,12.61
2022-11-17T01:12:44.414Z,12.57
2022-11-17T01:17:41.429Z,12.63
2022-11-17T01:22:38.386Z,12.54
2022-11-17T01:27:35.369Z,12.73
2022-11-17T01:32:32.989Z,12.75
2022-11-17T01:37:30.414Z,12.80
2022-11-17T01:42:27.567Z,12.82
2022-11-17T01:47:32.066Z,12.27
2022-11-17T01:52:31.864Z,12.26
2022-11-17T01:57:34.888Z,12.72
2022-11-17T02:02:33.029Z,12.22
2022-11-17T02:07:34.202Z,12.64
2022-11-17T02:12:32.844Z,12.75
2022-11-17T02:17:35.138Z,12.98
2022-11-17T02:23:08.656Z,12.88
2022-11-17T02:28:17.969Z,13.06
2022-11-17T02:33:21.722Z,12.75
2022-11-17T02:38:28.530Z,12.36
2022-11-17T02:43:51.216Z,12.92
2022-11-17T02:48:53.270Z,13.19
2022-11-17T02:53:53.162Z,12.83
2022-11-17T02:58:53.807Z,13.23
2022-11-17T03:04:06.369Z,13.29
2022-11-17T03:09:12.957Z,13.32
2022-11-17T03:14:20.288Z,12.89
2022-11-17T03:19:19.787Z,13.37
2022-11-17T03:24:21.514Z,13.37
2022-11-17T03:29:22.975Z,13.12
2022-11-17T03:34:24.733Z,13.30
2022-11-17T03:39:25.868Z,12.95
2022-11-17T03:44:26.995Z,13.13
2022-11-17T03:49:33.086Z,13.01
2022-11-17T03:54:30.488Z,12.98
2022-11-17T03:59:33.668Z,12.58
2022-11-17T04:04:50.700Z,12.56
2022-11-17T04:09:47.596Z,12.59
2022-11-17T04:15:03.437Z,12.49
2022-11-17T04:20:00.661Z,12.60
2022-11-17T04:24:57.640Z,12.73
2022-11-17T04:29:55.266Z,12.79
2022-11-17T04:34:52.265Z,12.45
2022-11-17T04:39:49.209Z,12.60
2022-11-17T04:44:46.133Z,12.48
2022-11-17T04:49:44.025Z,11.92
2022-11-17T04:54:41.351Z,12.16
2022-11-17T04:59:38.294Z,12.36
2022-11-17T05:04:52.865Z,12.28
2022-11-17T05:09:52.009Z,11.97
2022-11-17T05:14:49.755Z,11.82
2022-11-17T05:19:48.161Z,11.10
2022-11-17T05:24:45.173Z,11.16
2022-11-17T05:29:43.312Z,12.01
2022-11-17T05:34:40.524Z,12.16
2022-11-17T05:39:37.531Z,12.31
2022-11-17T05:44:34.437Z,12.18
2022-11-17T05:49:34.265Z,12.49
2022-11-17T05:54:31.338Z,12.50
2022-11-17T05:59:32.547Z,12.61
2022-11-17T06:04:30.482Z,12.56
2022-11-17T06:09:31.897Z,12.73
2022-11-17T06:14:28.868Z,12.60
2022-11-17T06:19:30.369Z,12.90
2022-11-17T06:24:28.950Z,12.92
2022-11-17T06:29:30.756Z,12.98
2022-11-17T06:34:31.320Z,13.38
2022-11-17T06:39:29.304Z,13.69
2022-11-17T06:44:30.710Z,13.79
2022-11-17T06:49:27.916Z,13.43
2022-11-17T06:54:25.144Z,13.96
2022-11-17T06:59:22.823Z,13.71
2022-11-17T07:04:19.845Z,14.20
2022-11-17T07:09:16.746Z,14.08
2022-11-17T07:14:13.772Z,14.45
2022-11-17T07:19:12.579Z,14.62
2022-11-17T07:24:09.588Z,14.69
2022-11-17T07:29:06.923Z,15.08
2022-11-17T07:34:04.120Z,14.96
2022-11-17T07:39:02.139Z,15.25
2022-11-17T07:43:59.926Z,15.66
2022-11-17T07:48:57.021Z,15.64
2022-11-17T07:53:54.113Z,15.62
2022-11-17T07:58:54.189Z,15.25
2022-11-17T08:03:51.241Z,15.60
2022-11-17T08:09:00.064Z,15.42
2022-11-17T08:14:13.323Z,15.38
2022-11-17T08:19:40.441Z,14.95
2022-11-17T08:24:42.891Z,14.93
2022-11-17T08:29:40.951Z,15.55
2022-11-17T08:34:38.428Z,15.16
2022-11-17T08:39:38.371Z,15.43
2022-11-17T08:44:35.696Z,15.43
2022-11-17T08:49:33.873Z,15.59
2022-11-17T08:54:31.297Z,14.86
2022-11-17T08:59:28.574Z,15.11
2022-11-17T09:04:25.478Z,15.53
2022-11-17T09:09:26.478Z,15.42
2022-11-17T09:14:23.935Z,14.93
2022-11-17T09:19:21.289Z,14.95
2022-11-17T09:24:18.696Z,15.50
2022-11-17T09:29:17.664Z,15.45
2022-11-17T09:34:15.365Z,15.36
2022-11-17T09:39:12.668Z,15.38
2022-11-17T09:44:28.350Z,15.56
2022-11-17T09:49:35.943Z,15.55
2022-11-17T09:54:42.822Z,15.59
2022-11-17T09:59:42.457Z,15.28
2022-11-17T10:04:39.664Z,15.55
2022-11-17T10:09:42.418Z,15.87
2022-11-17T10:14:41.265Z,15.87
2022-11-17T10:19:39.404Z,15.72
2022-11-17T10:24:42.140Z,15.98
2022-11-17T10:29:40.201Z,16.04
2022-11-17T10:34:41.671Z,16.28
2022-11-17T10:39:42.867Z,16.04
2022-11-17T10:44:43.489Z,16.24
2022-11-17T10:49:40.913Z,16.33
2022-11-17T10:54:39.182Z,16.04
2022-11-17T10:59:45.503Z,16.18
2022-11-17T11:04:43.596Z,15.80
2022-11-17T11:09:53.764Z,16.04
2022-11-17T11:14:56.205Z,16.04
2022-11-17T11:19:54.775Z,15.76
2022-11-17T11:24:58.424Z,15.66
2022-11-17T11:30:06.060Z,15.65
2022-11-17T11:35:40.781Z,15.58
2022-11-17T11:40:41.100Z,15.92
2022-11-17T11:45:51.049Z,15.63
2022-11-17T11:50:52.848Z,15.76
2022-11-17T11:55:55.815Z,16.55
2022-11-17T12:01:05.239Z,16.69
2022-11-17T12:06:30.538Z,17.02
2022-11-17T12:11:46.459Z,17.04
2022-11-17T12:16:46.529Z,16.76
2022-11-17T12:21:44.212Z,16.73
2022-11-17T12:26:45.574Z,16.98
2022-11-17T12:31:46.340Z,16.59
2022-11-17T12:37:03.565Z,16.80
2022-11-17T12:42:08.122Z,16.75
2022-11-17T12:47:16.822Z,16.48
2022-11-17T12:52:22.135Z,17.06
2022-11-17T12:57:23.607Z,17.12
2022-11-17T13:02:37.498Z,17.10
2022-11-17T13:07:34.940Z,16.71
2022-11-17T13:12:34.542Z,16.97
2022-11-17T13:17:34.023Z,16.60
2022-11-17T13:22:32.022Z,16.71
2022-11-17T13:27:31.559Z,16.60
2022-11-17T13:32:32.919Z,16.29
2022-11-17T13:37:31.069Z,16.33
2022-11-17T13:42:32.503Z,15.81
2022-11-17T13:47:45.291Z,15.83
2022-11-17T13:52:46.836Z,15.58
2022-11-17T13:57:54.844Z,15.41
2022-11-17T14:02:53.929Z,15.30
2022-11-17T14:07:52.970Z,15.46
2022-11-17T14:12:54.486Z,15.13
2022-11-17T14:17:58.337Z,14.71
2022-11-17T14:23:08.767Z,15.12
2022-11-17T14:33:43.486Z,14.93
2022-11-17T14:38:47.004Z,14.77
2022-11-17T14:43:45.962Z,14.56
2022-11-17T14:48:46.262Z,14.56
2022-11-17T14:53:46.320Z,13.94
2022-11-17T14:58:44.055Z,14.56
2022-11-17T15:03:41.763Z,14.27
2022-11-17T15:08:39.854Z,14.40
2022-11-17T15:13:37.088Z,13.68
2022-11-17T15:18:34.624Z,13.90
2022-11-17T15:23:32.682Z,13.71
2022-11-17T15:28:30.747Z,13.98
2022-11-17T15:33:31.709Z,13.88
2022-11-17T15:38:29.522Z,13.77
2022-11-17T15:43:32.421Z,13.85
2022-11-17T15:48:32.147Z,13.58
2022-11-17T15:53:32.397Z,13.73
2022-11-17T15:58:29.513Z,13.22
2022-11-17T16:03:26.525Z,13.49
2022-11-17T16:08:37.502Z,13.56
2022-11-17T16:13:37.779Z,13.45
2022-11-17T16:18:37.277Z,13.42
2022-11-17T16:23:40.137Z,13.38
2022-11-17T16:28:37.883Z,12.86
2022-11-17T16:33:35.364Z,13.21
2022-11-17T16:38:55.063Z,13.18
2022-11-17T16:43:58.206Z,13.40
2022-11-17T16:48:56.427Z,13.21
2022-11-17T16:53:56.579Z,12.77
2022-11-17T16:58:54.952Z,13.11
2022-11-17T17:03:56.840Z,12.61
2022-11-17T17:08:55.137Z,12.86
2022-11-17T17:13:52.924Z,12.72
2022-11-17T17:18:58.938Z,12.60
2022-11-17T17:23:56.797Z,12.46
2022-11-17T17:28:55.949Z,12.23
2022-11-17T17:33:54.802Z,12.88
2022-11-17T17:38:56.132Z,12.32
2022-11-17T17:43:58.080Z,12.48
2022-11-17T17:48:55.451Z,12.15
2022-11-17T17:53:58.233Z,12.44
2022-11-17T17:58:56.300Z,12.52
2022-11-17T18:04:01.115Z,12.50
2022-11-17T18:09:05.118Z,12.69
2022-11-17T18:14:23.250Z,12.03
2022-11-17T18:19:32.612Z,12.00
2022-11-17T18:24:31.358Z,12.45
2022-11-17T18:29:31.432Z,12.12
2022-11-17T18:34:28.583Z,12.13
2022-11-17T18:39:27.801Z,12.05
2022-11-17T18:44:26.096Z,12.24
2022-11-17T18:49:31.776Z,12.15
2022-11-17T18:54:29.146Z,12.17
2022-11-17T18:59:27.253Z,12.11
2022-11-17T19:04:29.242Z,11.77
2022-11-17T19:09:29.227Z,12.06
2022-11-17T19:14:26.994Z,12.02
2022-11-17T19:19:24.128Z,12.23
2022-11-17T19:24:21.623Z,11.98
2022-11-17T19:29:20.664Z,12.02
2022-11-17T19:34:19.227Z,12.18
2022-11-17T19:39:18.135Z,11.62
2022-11-17T19:44:17.945Z,11.97
2022-11-17T19:49:15.790Z,12.04
2022-11-17T19:54:14.451Z,12.07
2022-11-17T19:59:16.004Z,12.10
2022-11-17T20:04:14.317Z,12.01
2022-11-17T20:09:14.333Z,11.52
2022-11-17T20:14:14.466Z,11.90
2022-11-17T20:19:13.193Z,11.92
2022-11-17T20:24:20.055Z,12.10
2022-11-17T20:29:19.680Z,12.22
2022-11-17T20:34:17.200Z,11.55
2022-11-17T20:39:15.418Z,11.64
2022-11-17T20:44:24.079Z,12.13
2022-11-17T20:49:25.070Z,11.83
2022-11-17T20:54:22.216Z,11.73
2022-11-17T20:59:20.391Z,12.00
2022-11-17T21:04:17.703Z,12.11
2022-11-17T21:09:15.910Z,11.52
2022-11-17T21:14:18.895Z,11.95
2022-11-17T21:19:17.394Z,12.02
2022-11-17T21:24:15.672Z,11.67
2022-11-17T21:29:13.058Z,11.84
2022-11-17T21:34:15.272Z,11.94
2022-11-17T21:39:19.499Z,11.65
2022-11-17T21:44:17.793Z,11.27
2022-11-17T21:49:15.377Z,11.27
2022-11-17T21:54:15.385Z,11.77
2022-11-17T21:59:15.210Z,11.65
2022-11-17T22:04:15.365Z,11.43
2022-11-17T22:09:16.043Z,11.56
2022-11-17T22:14:18.661Z,10.97
2022-11-17T22:19:18.683Z,11.02
2022-11-17T22:24:17.867Z,10.93
2022-11-17T22:29:17.240Z,10.81
2022-11-17T22:34:15.465Z,10.84
2022-11-17T22:39:13.484Z,10.69
2022-11-17T22:44:14.113Z,11.06
2022-11-17T22:49:11.573Z,10.68
2022-11-17T22:54:09.150Z,10.56
2022-11-17T22:59:07.247Z,10.93
2022-11-17T23:04:04.659Z,10.59
2022-11-17T23:09:01.672Z,10.46
2022-11-17T23:13:58.731Z,10.84
2022-11-17T23:18:56.871Z,10.68
2022-11-17T23:23:53.995Z,10.73
2022-11-17T23:28:50.946Z,10.46
2022-11-17T23:33:51.191Z,10.79
2022-11-17T23:38:50.233Z,10.70
2022-11-17T23:43:49.818Z,10.40
2022-11-17T23:48:47.421Z,10.69
2022-11-17T23:53:45.833Z,10.54
2022-11-17T23:58:43.782Z,10.39
